Big Hole Natl Battlefield, Montana
Current Conditions -  °F | °C
As of 10:53 PM on Wednesday 28 Jan 2015 (Local Time) from KBTM Reporting Station
Clear Clear  
Wind Chill: 25°   Ceiling: Unl
Heat Index: 25°   Visibility: 10mi
Dew Point: 20°   Wind: 3mph
Humidity: 81%   Direction: 90°E
Pressure: 30.4"   Gusts: NA
Location:  45.64°N, 113.65°W
Report Text: KBTM 290553Z AUTO 09003KT 10SM CLR M04/M07 A3040 RMK AO2 SLP323 T10391067 10044 21039 51011
Loading
Personal Weather Stations






























Interactive Weather Map New forecast layout! Learn more

10-Day Weather Forecast

Advertisements
Track Severe Weather on mobile